createdAt,value
2022-09-23T00:01:20.049Z,60.99
2022-09-23T00:03:58.331Z,61.42
2022-09-23T00:06:27.523Z,62.01
2022-09-23T00:08:55.645Z,62.51
2022-09-23T00:11:27.655Z,62.59
2022-09-23T00:13:56.431Z,61.67
2022-09-23T00:16:25.454Z,61.01
2022-09-23T00:18:53.081Z,60.72
2022-09-23T00:21:21.511Z,61.34
2022-09-23T00:23:49.513Z,61.70
2022-09-23T00:26:18.357Z,61.74
2022-09-23T00:28:46.570Z,61.98
2022-09-23T00:31:15.478Z,61.12
2022-09-23T00:33:43.249Z,61.67
2022-09-23T00:36:12.327Z,60.52
2022-09-23T00:38:40.039Z,59.25
2022-09-23T00:41:07.566Z,61.66
2022-09-23T00:43:39.830Z,65.40
2022-09-23T00:46:08.834Z,63.85
2022-09-23T00:48:38.937Z,62.41
2022-09-23T00:51:07.589Z,62.41
2022-09-23T00:53:35.697Z,62.34
2022-09-23T00:56:07.042Z,61.26
2022-09-23T00:58:36.656Z,60.94
2022-09-23T01:01:05.385Z,61.23
2022-09-23T01:03:33.719Z,60.99
2022-09-23T01:06:01.381Z,60.63
2022-09-23T01:08:29.244Z,60.81
2022-09-23T01:11:02.960Z,60.76
2022-09-23T01:13:34.303Z,59.81
2022-09-23T01:16:05.954Z,62.55
2022-09-23T01:18:38.716Z,64.93
2022-09-23T01:21:14.763Z,64.34
2022-09-23T01:24:02.129Z,63.50
2022-09-23T01:26:40.111Z,62.70
2022-09-23T01:29:23.277Z,61.65
2022-09-23T01:31:54.151Z,62.45
2022-09-23T01:34:24.663Z,61.88
2022-09-23T01:36:55.430Z,60.57
2022-09-23T01:39:27.355Z,61.27
2022-09-23T01:41:58.844Z,61.73
2022-09-23T01:44:30.778Z,61.34
2022-09-23T01:47:02.258Z,61.22
2022-09-23T01:49:33.624Z,60.05
2022-09-23T01:52:06.754Z,60.61
2022-09-23T01:54:38.218Z,61.04
2022-09-23T01:57:07.931Z,62.04
2022-09-23T01:59:37.878Z,61.39
2022-09-23T02:02:09.094Z,60.44
2022-09-23T02:04:40.092Z,60.69
2022-09-23T02:07:09.871Z,59.95
2022-09-23T02:09:42.258Z,64.01
2022-09-23T02:12:12.380Z,66.62
2022-09-23T02:14:42.787Z,66.72
2022-09-23T02:17:12.698Z,65.88
2022-09-23T02:19:42.810Z,63.89
2022-09-23T02:22:14.129Z,61.57
2022-09-23T02:24:42.130Z,61.03
2022-09-23T02:27:15.116Z,62.16
2022-09-23T02:29:49.020Z,62.25
2022-09-23T02:32:20.057Z,62.44
2022-09-23T02:34:53.355Z,61.22
2022-09-23T02:37:24.906Z,60.24
2022-09-23T02:39:57.477Z,61.08
2022-09-23T02:42:27.085Z,64.87
2022-09-23T02:44:55.566Z,63.88
2022-09-23T02:47:24.742Z,63.10
2022-09-23T02:49:55.749Z,61.94
2022-09-23T02:52:24.489Z,60.65
2022-09-23T02:54:52.370Z,61.45
2022-09-23T02:57:20.534Z,66.25
2022-09-23T02:59:50.038Z,65.08
2022-09-23T03:02:27.811Z,62.97
2022-09-23T03:05:03.369Z,61.53
2022-09-23T03:07:35.896Z,61.17
2022-09-23T03:10:07.665Z,60.77
2022-09-23T03:12:39.270Z,61.48
2022-09-23T03:15:14.702Z,60.65
2022-09-23T03:17:44.257Z,60.67
2022-09-23T03:20:14.799Z,61.29
2022-09-23T03:22:45.344Z,60.60
2022-09-23T03:25:15.796Z,60.02
2022-09-23T03:27:45.130Z,62.24
2022-09-23T03:30:13.575Z,66.18
2022-09-23T03:32:43.556Z,64.49
2022-09-23T03:35:11.773Z,63.28
2022-09-23T03:37:41.939Z,62.88
2022-09-23T03:40:12.874Z,62.64
2022-09-23T03:42:40.892Z,62.11
2022-09-23T03:45:12.769Z,60.89
2022-09-23T03:47:41.745Z,62.07
2022-09-23T03:50:12.986Z,63.40
2022-09-23T03:52:40.861Z,63.94
2022-09-23T03:55:09.599Z,62.30
2022-09-23T03:57:37.719Z,61.76
2022-09-23T04:00:07.034Z,61.79
2022-09-23T04:02:41.095Z,59.69
2022-09-23T04:05:09.507Z,63.91
2022-09-23T04:07:37.286Z,66.26
2022-09-23T04:10:06.570Z,64.33
2022-09-23T04:12:34.537Z,63.79
2022-09-23T04:15:02.503Z,64.57
2022-09-23T04:17:30.572Z,62.67
2022-09-23T04:19:58.336Z,61.38
2022-09-23T04:22:26.098Z,60.28
2022-09-23T04:24:54.271Z,59.96
2022-09-23T04:27:21.986Z,60.34
2022-09-23T04:29:49.596Z,60.79
2022-09-23T04:32:17.462Z,59.73
2022-09-23T04:34:45.227Z,61.82
2022-09-23T04:37:12.885Z,65.80
2022-09-23T04:39:40.600Z,66.32
2022-09-23T04:42:08.518Z,64.65
2022-09-23T04:44:36.133Z,64.15
2022-09-23T04:47:04.614Z,62.49
2022-09-23T04:49:33.358Z,61.82
2022-09-23T04:52:02.547Z,61.72
2022-09-23T04:54:31.122Z,61.16
2022-09-23T04:56:59.092Z,60.66
2022-09-23T04:59:26.756Z,60.42
2022-09-23T05:01:54.823Z,60.58
2022-09-23T05:04:22.588Z,60.97
2022-09-23T05:06:50.146Z,60.21
2022-09-23T05:09:18.329Z,60.63
2022-09-23T05:11:46.156Z,60.74
2022-09-23T05:14:13.859Z,59.91
2022-09-23T05:16:41.791Z,61.20
2022-09-23T05:19:09.689Z,64.38
2022-09-23T05:21:38.670Z,64.33
2022-09-23T05:24:07.052Z,61.99
2022-09-23T05:26:34.810Z,61.13
2022-09-23T05:29:02.379Z,61.64
2022-09-23T05:31:30.648Z,60.99
2022-09-23T05:33:59.852Z,59.91
2022-09-23T05:36:27.865Z,63.03
2022-09-23T05:38:57.005Z,65.27
2022-09-23T05:41:25.495Z,62.92
2022-09-23T05:43:53.658Z,61.21
2022-09-23T05:46:22.605Z,62.97
2022-09-23T05:48:50.806Z,62.90
2022-09-23T05:51:19.721Z,62.76
2022-09-23T05:53:48.306Z,62.11
2022-09-23T05:56:17.498Z,62.73
2022-09-23T05:58:45.019Z,59.80
2022-09-23T06:01:14.566Z,61.69
2022-09-23T06:03:42.532Z,66.03
2022-09-23T06:06:13.943Z,64.41
2022-09-23T06:08:42.052Z,62.10
2022-09-23T06:11:11.351Z,63.07
2022-09-23T06:13:39.422Z,63.33
2022-09-23T06:16:07.794Z,63.89
2022-09-23T06:18:35.847Z,62.61
2022-09-23T06:21:03.734Z,62.15
2022-09-23T06:23:31.745Z,58.98
2022-09-23T06:26:03.977Z,62.39
2022-09-23T06:28:32.865Z,65.83
2022-09-23T06:31:02.866Z,63.93
2022-09-23T06:33:36.810Z,61.52
2022-09-23T06:36:06.085Z,60.17
2022-09-23T06:38:34.016Z,60.90
2022-09-23T06:41:02.630Z,65.80
2022-09-23T06:43:30.814Z,62.64
2022-09-23T06:45:59.396Z,60.57
2022-09-23T06:48:27.775Z,61.06
2022-09-23T06:50:58.444Z,63.85
2022-09-23T06:53:26.365Z,62.31
2022-09-23T06:55:58.355Z,59.83
2022-09-23T06:58:26.462Z,61.79
2022-09-23T07:00:54.674Z,65.02
2022-09-23T07:03:22.203Z,63.59
2022-09-23T07:05:54.039Z,61.78
2022-09-23T07:08:22.334Z,61.86
2022-09-23T07:10:52.083Z,60.63
2022-09-23T07:13:20.491Z,59.16
2022-09-23T07:15:52.346Z,63.88
2022-09-23T07:18:23.361Z,64.63
2022-09-23T07:20:51.126Z,63.65
2022-09-23T07:23:18.718Z,61.41
2022-09-23T07:25:49.755Z,60.11
2022-09-23T07:28:17.388Z,58.68
2022-09-23T07:30:55.660Z,61.87
2022-09-23T07:33:32.474Z,63.96
2022-09-23T07:36:03.921Z,61.86
2022-09-23T07:38:32.596Z,61.80
2022-09-23T07:41:04.359Z,63.11
2022-09-23T07:43:32.947Z,61.27
2022-09-23T07:46:02.544Z,58.62
2022-09-23T07:48:34.080Z,60.55
2022-09-23T07:51:06.676Z,64.86
2022-09-23T07:53:34.776Z,61.89
2022-09-23T07:56:05.995Z,61.05
2022-09-23T07:58:34.757Z,64.58
2022-09-23T08:01:03.408Z,62.44
2022-09-23T08:03:31.533Z,59.26
2022-09-23T08:06:09.586Z,61.43
2022-09-23T08:08:39.897Z,63.86
2022-09-23T08:11:09.468Z,60.43
2022-09-23T08:13:37.916Z,60.59
2022-09-23T08:16:06.320Z,63.41
2022-09-23T08:18:34.600Z,60.20
2022-09-23T08:21:02.992Z,59.66
2022-09-23T08:23:33.059Z,62.14
2022-09-23T08:26:02.726Z,61.53
2022-09-23T08:28:31.933Z,59.25
2022-09-23T08:31:00.420Z,60.51
2022-09-23T08:33:28.354Z,63.38
2022-09-23T08:36:00.160Z,59.94
2022-09-23T08:38:28.442Z,59.63
2022-09-23T08:41:06.736Z,62.70
2022-09-23T08:43:37.433Z,62.60
2022-09-23T08:46:08.719Z,60.39
2022-09-23T08:48:38.274Z,59.47
2022-09-23T08:51:07.492Z,62.17
2022-09-23T08:53:36.180Z,58.31
2022-09-23T08:56:05.152Z,61.96
2022-09-23T08:58:37.388Z,62.21
2022-09-23T09:01:10.113Z,60.71
2022-09-23T09:03:40.734Z,58.05
2022-09-23T09:06:12.218Z,58.71
2022-09-23T09:08:41.401Z,60.74
2022-09-23T09:11:11.961Z,62.84
2022-09-23T09:13:48.587Z,60.30
2022-09-23T09:16:48.294Z,59.53
2022-09-23T09:19:19.062Z,61.50
2022-09-23T09:21:48.949Z,62.69
2022-09-23T09:24:18.695Z,61.95
2022-09-23T09:26:46.721Z,60.42
2022-09-23T09:29:34.209Z,56.12
2022-09-23T09:32:11.786Z,56.81
2022-09-23T09:34:42.367Z,58.78
2022-09-23T09:37:14.331Z,60.63
2022-09-23T09:39:42.193Z,61.31
2022-09-23T09:42:13.823Z,60.74
2022-09-23T09:44:44.476Z,56.70
2022-09-23T09:47:21.911Z,55.12
2022-09-23T09:49:53.809Z,58.88
2022-09-23T09:52:22.688Z,61.10
2022-09-23T09:54:51.356Z,59.99
2022-09-23T09:57:24.951Z,60.86
2022-09-23T09:59:51.789Z,61.92
2022-09-23T10:02:23.834Z,62.31
2022-09-23T10:04:56.475Z,57.35
2022-09-23T10:07:25.784Z,59.03
2022-09-23T10:09:55.785Z,62.39
2022-09-23T10:12:26.990Z,61.27
2022-09-23T10:14:56.455Z,59.03
2022-09-23T10:17:32.886Z,60.79
2022-09-23T10:20:02.261Z,62.61
2022-09-23T10:22:33.479Z,59.95
2022-09-23T10:25:03.378Z,58.43
2022-09-23T10:27:32.517Z,60.65
2022-09-23T10:30:02.328Z,63.15
2022-09-23T10:32:31.834Z,62.72
2022-09-23T10:35:03.491Z,59.55
2022-09-23T10:37:33.231Z,57.69
2022-09-23T10:40:29.755Z,59.49
2022-09-23T10:43:21.629Z,62.02
2022-09-23T10:46:07.923Z,60.81
2022-09-23T10:48:44.305Z,58.96
2022-09-23T10:51:15.304Z,57.13
2022-09-23T10:53:49.369Z,59.06
2022-09-23T10:56:22.725Z,61.30
2022-09-23T10:58:59.969Z,62.17
2022-09-23T11:01:33.535Z,55.34
2022-09-23T11:04:06.719Z,56.80
2022-09-23T11:06:41.575Z,55.61
2022-09-23T11:09:14.981Z,58.16
2022-09-23T11:11:48.795Z,59.85
2022-09-23T11:14:29.459Z,61.24
2022-09-23T11:17:14.322Z,62.07
2022-09-23T11:19:57.866Z,59.29
2022-09-23T11:22:26.035Z,58.18
2022-09-23T11:25:16.714Z,60.16
2022-09-23T11:27:53.372Z,61.85
2022-09-23T11:30:21.817Z,62.83
2022-09-23T11:33:05.426Z,61.12
2022-09-23T11:35:36.517Z,56.99
2022-09-23T11:38:07.203Z,53.76
2022-09-23T11:40:36.310Z,53.73
2022-09-23T11:43:07.140Z,51.98
2022-09-23T11:45:37.160Z,54.77
2022-09-23T11:48:06.151Z,55.90
2022-09-23T11:50:36.367Z,54.71
2022-09-23T11:53:08.633Z,57.28
2022-09-23T11:55:49.595Z,56.83
2022-09-23T11:58:25.738Z,54.65
2022-09-23T12:01:00.895Z,56.17
2022-09-23T12:37:24.387Z,53.50
2022-09-23T12:39:52.353Z,52.54
2022-09-23T12:42:22.025Z,52.18
2022-09-23T12:44:50.719Z,52.27
2022-09-23T12:47:36.639Z,52.76
2022-09-23T12:50:34.301Z,53.52
2022-09-23T12:53:16.094Z,51.85
2022-09-23T12:55:46.487Z,52.32
2022-09-23T12:58:28.387Z,51.34
2022-09-23T13:01:07.002Z,50.11
2022-09-23T13:03:53.329Z,49.94
2022-09-23T13:06:48.637Z,48.48
2022-09-23T13:09:18.357Z,44.48
2022-09-23T13:11:47.487Z,42.73
2022-09-23T13:14:18.771Z,40.96
2022-09-23T13:16:47.306Z,41.72
2022-09-23T13:19:38.539Z,41.33
2022-09-23T13:22:08.384Z,40.97
2022-09-23T13:24:39.688Z,40.56
2022-09-23T13:27:13.083Z,38.50
2022-09-23T13:29:43.097Z,38.07
2022-09-23T13:32:12.496Z,39.77
2022-09-23T13:34:41.145Z,40.14
2022-09-23T13:37:22.040Z,38.52
2022-09-23T13:39:50.616Z,38.11
2022-09-23T13:42:21.229Z,38.68
2022-09-23T13:44:48.990Z,37.06
2022-09-23T13:47:16.555Z,35.63
2022-09-23T13:49:47.576Z,36.85
2022-09-23T13:52:24.085Z,38.29
2022-09-23T13:54:52.229Z,38.49
2022-09-23T13:57:25.875Z,39.94
2022-09-23T13:59:53.906Z,40.36
2022-09-23T14:02:25.044Z,41.17
2022-09-23T14:04:55.985Z,37.56
2022-09-23T14:07:24.468Z,36.10
2022-09-23T14:09:54.484Z,37.83
2022-09-23T14:12:22.368Z,37.62
2022-09-23T14:14:51.589Z,37.45
2022-09-23T14:17:20.951Z,36.27
2022-09-23T14:19:49.330Z,35.02
2022-09-23T14:22:24.472Z,35.63
2022-09-23T14:24:52.539Z,35.26
2022-09-23T14:27:25.032Z,34.79
2022-09-23T14:29:53.265Z,35.71
2022-09-23T14:32:23.637Z,37.78
2022-09-23T14:34:52.218Z,37.39
2022-09-23T14:37:40.031Z,36.33
2022-09-23T14:40:12.470Z,37.76
2022-09-23T14:42:42.828Z,38.50
2022-09-23T14:45:13.584Z,39.71
2022-09-23T14:47:43.709Z,39.40
2022-09-23T14:50:34.067Z,36.91
2022-09-23T14:53:02.554Z,36.21
2022-09-23T14:55:31.344Z,36.49
2022-09-23T14:58:04.540Z,35.67
2022-09-23T15:00:32.916Z,34.63
2022-09-23T15:03:01.514Z,34.07
2022-09-23T15:05:38.840Z,33.93
2022-09-23T15:08:07.258Z,32.25
2022-09-23T15:10:37.497Z,30.81
2022-09-23T15:13:07.036Z,32.07
2022-09-23T15:15:35.676Z,30.56
2022-09-23T15:18:04.362Z,30.67
2022-09-23T15:20:32.632Z,30.66
2022-09-23T15:23:01.224Z,31.98
2022-09-23T15:25:32.106Z,32.19
2022-09-23T15:28:01.919Z,34.63
2022-09-23T15:30:31.472Z,36.65
2022-09-23T15:33:00.071Z,38.73
2022-09-23T15:35:28.740Z,40.75
2022-09-23T15:38:02.126Z,41.58
2022-09-23T15:40:31.793Z,43.02
2022-09-23T15:43:02.102Z,44.18
2022-09-23T15:45:32.983Z,45.02
2022-09-23T15:48:05.619Z,46.16
2022-09-23T15:50:34.933Z,46.87
2022-09-23T15:53:03.260Z,47.13
2022-09-23T15:55:31.561Z,47.12
2022-09-23T15:57:59.918Z,48.20
2022-09-23T16:00:27.878Z,48.71
2022-09-23T16:02:55.373Z,48.71
2022-09-23T16:05:26.179Z,49.65
2022-09-23T16:07:53.933Z,50.35
2022-09-23T16:10:24.054Z,50.53
2022-09-23T16:12:52.647Z,50.85
2022-09-23T16:15:21.771Z,51.03
2022-09-23T16:17:49.603Z,52.16
2022-09-23T16:20:17.789Z,52.21
2022-09-23T16:22:49.288Z,52.49
2022-09-23T16:25:17.603Z,52.62
2022-09-23T16:27:45.651Z,52.62
2022-09-23T16:30:13.487Z,52.62
2022-09-23T16:32:42.022Z,54.23
2022-09-23T16:35:10.289Z,54.65
2022-09-23T16:37:38.260Z,55.35
2022-09-23T16:40:09.284Z,56.50
2022-09-23T16:42:38.804Z,56.32
2022-09-23T16:45:07.999Z,56.59
2022-09-23T16:47:41.578Z,56.90
2022-09-23T16:50:09.923Z,57.35
2022-09-23T16:52:37.750Z,58.81
2022-09-23T16:55:08.359Z,58.84
2022-09-23T16:57:36.916Z,58.79
2022-09-23T17:00:24.794Z,59.50
2022-09-23T17:03:11.048Z,59.64
2022-09-23T17:05:38.749Z,60.36
2022-09-23T17:08:07.237Z,60.32
2022-09-23T17:10:34.834Z,61.71
2022-09-23T17:13:02.630Z,63.04
2022-09-23T17:15:30.770Z,65.02
2022-09-23T17:17:58.405Z,62.75
2022-09-23T17:20:26.270Z,58.55
2022-09-23T17:22:54.627Z,58.36
2022-09-23T17:25:22.194Z,61.75
2022-09-23T17:27:50.062Z,63.68
2022-09-23T17:30:18.440Z,61.37
2022-09-23T17:32:46.708Z,59.99
2022-09-23T17:35:14.471Z,59.69
2022-09-23T17:37:42.544Z,60.96
2022-09-23T17:40:10.896Z,63.03
2022-09-23T17:42:41.253Z,65.67
2022-09-23T17:45:12.288Z,63.36
2022-09-23T17:47:41.904Z,61.51
2022-09-23T17:50:10.490Z,58.58
2022-09-23T17:52:38.302Z,56.47
2022-09-23T17:55:07.549Z,58.47
2022-09-23T17:57:35.677Z,60.09
2022-09-23T18:00:03.534Z,62.00
2022-09-23T18:02:39.848Z,65.61
2022-09-23T18:05:08.422Z,63.49
2022-09-23T18:07:36.048Z,62.29
2022-09-23T18:10:04.973Z,57.69
2022-09-23T18:12:32.947Z,58.76
2022-09-23T18:15:00.911Z,62.15
2022-09-23T18:17:28.810Z,65.48
2022-09-23T18:19:56.436Z,62.15
2022-09-23T18:22:24.315Z,61.09
2022-09-23T18:24:52.480Z,58.54
2022-09-23T18:27:20.364Z,57.86
2022-09-23T18:29:47.933Z,60.33
2022-09-23T18:32:16.103Z,61.03
2022-09-23T18:34:44.139Z,66.18
2022-09-23T18:37:16.072Z,65.61
2022-09-23T18:39:44.844Z,62.36
2022-09-23T18:42:12.552Z,59.96
2022-09-23T18:44:40.528Z,57.05
2022-09-23T18:47:28.875Z,57.80
2022-09-23T18:50:14.654Z,58.28
2022-09-23T18:52:43.490Z,60.88
2022-09-23T18:55:11.309Z,66.52
2022-09-23T18:57:39.392Z,66.16
2022-09-23T19:00:09.350Z,62.96
2022-09-23T19:02:37.063Z,60.47
2022-09-23T19:05:05.443Z,58.74
2022-09-23T19:07:34.050Z,58.81
2022-09-23T19:10:01.988Z,61.20
2022-09-23T19:12:30.787Z,67.48
2022-09-23T19:14:58.882Z,66.22
2022-09-23T19:17:27.132Z,63.22
2022-09-23T19:19:55.186Z,62.10
2022-09-23T19:22:23.359Z,60.59
2022-09-23T19:24:51.735Z,57.85
2022-09-23T19:27:19.612Z,60.95
2022-09-23T19:29:47.548Z,64.83
2022-09-23T19:32:15.852Z,65.31
2022-09-23T19:34:43.794Z,61.63
2022-09-23T19:37:12.207Z,59.28
2022-09-23T19:39:40.471Z,58.18
2022-09-23T19:42:08.542Z,60.95
2022-09-23T19:44:39.555Z,65.74
2022-09-23T19:47:08.042Z,65.38
2022-09-23T19:49:36.342Z,63.18
2022-09-23T19:52:04.408Z,61.88
2022-09-23T19:54:32.378Z,61.07
2022-09-23T19:57:01.268Z,60.31
2022-09-23T19:59:29.568Z,58.60
2022-09-23T20:01:57.571Z,59.73
2022-09-23T20:04:25.688Z,63.22
2022-09-23T20:06:54.367Z,65.51
2022-09-23T20:09:22.130Z,62.82
2022-09-23T20:11:50.609Z,60.84
2022-09-23T20:14:19.506Z,60.00
2022-09-23T20:16:47.168Z,60.34
2022-09-23T20:19:15.235Z,59.67
2022-09-23T20:21:43.117Z,57.88
2022-09-23T20:24:11.900Z,58.41
2022-09-23T20:26:58.186Z,59.66
2022-09-23T20:29:26.152Z,65.54
2022-09-23T20:31:53.955Z,65.75
2022-09-23T20:34:22.195Z,62.97
2022-09-23T20:36:50.466Z,60.99
2022-09-23T20:39:18.126Z,60.01
2022-09-23T20:41:48.046Z,58.22
2022-09-23T20:44:16.321Z,59.69
2022-09-23T20:46:48.284Z,63.19
2022-09-23T20:49:17.074Z,66.88
2022-09-23T20:51:44.805Z,64.95
2022-09-23T20:54:12.706Z,62.58
2022-09-23T20:56:40.197Z,61.15
2022-09-23T20:59:09.333Z,59.80
2022-09-23T21:01:37.167Z,59.64
2022-09-23T21:04:05.724Z,62.18
2022-09-23T21:06:34.890Z,65.13
2022-09-23T21:28:02.233Z,64.34
2022-09-23T21:30:30.853Z,64.81
2022-09-23T21:32:59.028Z,63.61
2022-09-23T21:35:27.300Z,62.25
2022-09-23T21:37:55.058Z,61.93
2022-09-23T21:40:41.292Z,61.76
2022-09-23T21:43:09.332Z,61.35
2022-09-23T21:45:36.892Z,60.74
2022-09-23T21:48:05.064Z,60.26
2022-09-23T21:50:40.318Z,59.90
2022-09-23T21:53:08.440Z,57.99
2022-09-23T21:55:37.415Z,59.27
2022-09-23T21:58:04.916Z,62.05
2022-09-23T22:00:33.197Z,66.22
2022-09-23T22:03:01.369Z,64.87
2022-09-23T22:05:29.029Z,61.94
2022-09-23T22:07:56.906Z,60.29
2022-09-23T22:10:25.055Z,59.07
2022-09-23T22:12:52.731Z,59.62
2022-09-23T22:15:20.701Z,64.67
2022-09-23T22:17:48.970Z,64.60
2022-09-23T22:20:16.632Z,62.50
2022-09-23T22:22:44.303Z,61.43
2022-09-23T22:25:12.263Z,60.99
2022-09-23T22:28:00.005Z,61.10
2022-09-23T22:30:46.393Z,60.40
2022-09-23T22:33:15.305Z,59.76
2022-09-23T22:35:43.261Z,58.42
2022-09-23T22:38:11.451Z,59.82
2022-09-23T22:40:42.328Z,64.42
2022-09-23T22:43:10.338Z,65.60
2022-09-23T22:45:39.223Z,63.16
2022-09-23T22:48:06.992Z,61.48
2022-09-23T22:50:34.878Z,60.40
2022-09-23T22:53:03.640Z,59.60
2022-09-23T22:55:31.627Z,58.86
2022-09-23T22:58:15.274Z,60.39
2022-09-23T23:00:48.095Z,65.57
2022-09-23T23:03:19.983Z,64.77
2022-09-23T23:05:47.539Z,61.34
2022-09-23T23:08:17.056Z,60.03
2022-09-23T23:10:44.977Z,59.26
2022-09-23T23:13:12.990Z,60.28
2022-09-23T23:15:40.966Z,65.62
2022-09-23T23:18:08.722Z,66.87
2022-09-23T23:20:37.325Z,64.97
2022-09-23T23:23:07.962Z,62.83
2022-09-23T23:25:35.716Z,61.06
2022-09-23T23:28:05.201Z,59.99
2022-09-23T23:30:34.333Z,59.75
2022-09-23T23:33:02.272Z,58.12
2022-09-23T23:35:29.820Z,58.28
2022-09-23T23:37:57.788Z,61.20
2022-09-23T23:40:27.434Z,64.48
2022-09-23T23:42:55.261Z,65.76
2022-09-23T23:45:23.335Z,64.97
2022-09-23T23:47:51.208Z,64.03
2022-09-23T23:50:18.861Z,63.04
2022-09-23T23:52:46.929Z,62.43
2022-09-23T23:55:16.639Z,61.79
2022-09-23T23:57:44.199Z,60.24
